createdAt,value
2022-12-12T00:01:04.803Z,61.87
2022-12-12T00:03:33.033Z,62.05
2022-12-12T00:06:03.438Z,61.93
2022-12-12T00:08:31.624Z,61.90
2022-12-12T00:10:59.940Z,62.02
2022-12-12T00:13:27.945Z,61.74
2022-12-12T00:15:55.998Z,61.64
2022-12-12T00:18:25.396Z,61.50
2022-12-12T00:20:53.805Z,61.83
2022-12-12T00:23:21.841Z,61.79
2022-12-12T00:25:56.615Z,61.48
2022-12-12T00:28:24.815Z,61.89
2022-12-12T00:30:52.947Z,61.96
2022-12-12T00:33:21.389Z,61.81
2022-12-12T00:35:52.771Z,62.15
2022-12-12T00:38:22.546Z,61.79
2022-12-12T00:40:51.289Z,61.76
2022-12-12T00:43:19.320Z,61.69
2022-12-12T00:45:47.360Z,61.83
2022-12-12T00:48:15.403Z,61.60
2022-12-12T00:50:43.464Z,61.52
2022-12-12T00:53:13.799Z,61.19
2022-12-12T00:55:41.905Z,61.29
2022-12-12T00:58:09.985Z,61.97
2022-12-12T01:00:40.524Z,62.31
2022-12-12T01:03:08.765Z,61.78
2022-12-12T01:05:37.051Z,61.45
2022-12-12T01:08:05.264Z,61.18
2022-12-12T01:10:34.801Z,61.39
2022-12-12T01:13:02.896Z,61.34
2022-12-12T01:15:31.005Z,61.21
2022-12-12T01:17:59.109Z,61.32
2022-12-12T01:20:29.214Z,61.09
2022-12-12T01:22:57.516Z,60.74
2022-12-12T01:25:25.593Z,60.86
2022-12-12T01:27:55.159Z,60.96
2022-12-12T01:30:24.080Z,60.96
2022-12-12T01:32:52.429Z,60.56
2022-12-12T01:35:20.605Z,61.22
2022-12-12T01:37:49.266Z,61.28
2022-12-12T01:40:20.681Z,61.27
2022-12-12T01:42:49.552Z,61.32
2022-12-12T01:45:54.485Z,60.98
2022-12-12T01:48:25.264Z,61.02
2022-12-12T01:50:53.863Z,61.20
2022-12-12T01:53:23.093Z,61.60
2022-12-12T01:55:51.722Z,61.77
2022-12-12T01:58:19.766Z,61.76
2022-12-12T02:00:47.891Z,61.55
2022-12-12T02:03:15.939Z,61.76
2022-12-12T02:05:50.209Z,61.75
2022-12-12T02:08:20.780Z,61.70
2022-12-12T02:10:49.356Z,61.60
2022-12-12T02:13:21.542Z,61.68
2022-12-12T02:16:01.111Z,61.67
2022-12-12T02:18:36.587Z,61.33
2022-12-12T02:21:16.553Z,61.38
2022-12-12T02:24:25.972Z,61.46
2022-12-12T02:27:17.238Z,61.73
2022-12-12T02:30:09.058Z,62.51
2022-12-12T02:33:07.046Z,61.90
2022-12-12T02:35:44.737Z,61.96
2022-12-12T02:38:22.872Z,61.89
2022-12-12T02:41:01.649Z,62.01
2022-12-12T02:43:37.387Z,61.83
2022-12-12T02:46:09.720Z,62.19
2022-12-12T02:48:44.377Z,62.34
2022-12-12T02:51:15.209Z,62.31
2022-12-12T02:53:43.281Z,62.00
2022-12-12T02:56:41.063Z,62.16
2022-12-12T02:59:09.428Z,62.28
2022-12-12T03:01:50.421Z,62.08
2022-12-12T03:05:00.327Z,62.09
2022-12-12T03:07:50.864Z,62.60
2022-12-12T03:10:42.801Z,62.65
2022-12-12T03:13:15.194Z,62.08
2022-12-12T03:15:51.671Z,62.28
2022-12-12T03:18:26.657Z,62.32
2022-12-12T03:21:04.306Z,62.29
2022-12-12T03:23:39.042Z,63.08
2022-12-12T03:26:13.142Z,62.37
2022-12-12T03:28:48.941Z,62.58
2022-12-12T03:31:20.886Z,62.45
2022-12-12T03:33:54.365Z,62.69
2022-12-12T03:36:28.381Z,62.31
2022-12-12T03:39:00.773Z,62.47
2022-12-12T03:41:32.851Z,62.25
2022-12-12T03:44:05.767Z,62.70
2022-12-12T03:46:40.156Z,62.97
2022-12-12T03:49:14.627Z,62.57
2022-12-12T03:51:49.476Z,62.69
2022-12-12T03:54:23.033Z,62.80
2022-12-12T03:56:57.115Z,62.90
2022-12-12T03:59:30.378Z,63.05
2022-12-12T04:02:03.188Z,62.86
2022-12-12T04:04:40.015Z,62.55
2022-12-12T04:07:16.954Z,63.40
2022-12-12T04:10:02.501Z,63.79
2022-12-12T04:12:53.843Z,63.81
2022-12-12T04:15:36.290Z,63.27
2022-12-12T04:18:15.133Z,63.05
2022-12-12T04:21:08.633Z,62.85
2022-12-12T04:23:48.795Z,62.69
2022-12-12T04:26:40.317Z,63.20
2022-12-12T04:29:17.861Z,63.08
2022-12-12T04:31:53.028Z,62.98
2022-12-12T04:34:27.484Z,62.78
2022-12-12T04:36:55.899Z,62.82
2022-12-12T04:39:27.163Z,62.67
2022-12-12T04:41:56.254Z,63.37
2022-12-12T04:44:25.897Z,63.21
2022-12-12T04:46:57.716Z,62.75
2022-12-12T04:49:28.865Z,62.70
2022-12-12T04:52:00.386Z,63.35
2022-12-12T04:54:37.898Z,62.95
2022-12-12T04:57:09.353Z,63.05
2022-12-12T04:59:38.057Z,62.97
2022-12-12T05:02:15.606Z,62.81
2022-12-12T05:04:50.839Z,62.66
2022-12-12T05:07:25.704Z,62.61
2022-12-12T05:09:55.597Z,62.47
2022-12-12T05:12:23.906Z,62.57
2022-12-12T05:14:52.094Z,62.88
2022-12-12T05:17:28.398Z,62.64
2022-12-12T05:19:57.805Z,62.32
2022-12-12T05:22:25.825Z,62.21
2022-12-12T05:24:55.400Z,62.41
2022-12-12T05:27:23.474Z,62.42
2022-12-12T05:29:51.505Z,62.23
2022-12-12T05:32:19.572Z,62.45
2022-12-12T05:34:47.568Z,62.27
2022-12-12T05:37:15.659Z,62.11
2022-12-12T05:39:43.616Z,61.89
2022-12-12T05:42:13.025Z,61.73
2022-12-12T05:44:41.138Z,61.52
2022-12-12T05:47:09.298Z,61.74
2022-12-12T05:49:37.321Z,61.54
2022-12-12T05:52:05.615Z,61.66
2022-12-12T05:54:33.809Z,61.70
2022-12-12T05:57:01.848Z,61.92
2022-12-12T05:59:31.321Z,61.54
2022-12-12T06:01:59.418Z,61.60
2022-12-12T06:04:27.692Z,61.41
2022-12-12T06:06:55.806Z,61.57
2022-12-12T06:09:23.802Z,61.49
2022-12-12T06:11:51.853Z,61.50
2022-12-12T06:14:19.842Z,61.83
2022-12-12T06:16:49.331Z,61.77
2022-12-12T06:19:19.133Z,61.61
2022-12-12T06:21:47.251Z,61.61
2022-12-12T06:24:15.588Z,61.57
2022-12-12T06:26:43.605Z,61.26
2022-12-12T06:29:11.708Z,61.02
2022-12-12T06:31:39.802Z,61.00
2022-12-12T06:34:09.320Z,60.96
2022-12-12T06:36:38.049Z,61.72
2022-12-12T06:39:06.284Z,62.03
2022-12-12T06:41:34.889Z,61.80
2022-12-12T06:44:03.178Z,61.83
2022-12-12T06:46:31.798Z,61.65
2022-12-12T06:49:00.306Z,61.80
2022-12-12T06:51:33.385Z,62.10
2022-12-12T06:54:01.408Z,61.60
2022-12-12T06:56:30.864Z,61.54
2022-12-12T06:59:01.053Z,61.31
2022-12-12T07:01:29.230Z,61.38
2022-12-12T07:03:58.093Z,61.10
2022-12-12T07:06:26.413Z,61.19
2022-12-12T07:08:56.287Z,61.12
2022-12-12T07:11:26.955Z,61.02
2022-12-12T07:13:57.060Z,61.12
2022-12-12T07:16:25.278Z,61.04
2022-12-12T07:18:53.329Z,61.02
2022-12-12T07:21:22.156Z,60.83
2022-12-12T07:23:50.355Z,60.85
2022-12-12T07:26:21.776Z,60.68
2022-12-12T07:28:51.548Z,60.66
2022-12-12T07:31:22.579Z,60.77
2022-12-12T07:33:50.669Z,60.86
2022-12-12T07:36:19.052Z,60.78
2022-12-12T07:38:47.086Z,60.76
2022-12-12T07:41:17.086Z,60.64
2022-12-12T07:43:51.065Z,60.51
2022-12-12T07:46:21.192Z,60.47
2022-12-12T07:48:49.417Z,60.40
2022-12-12T07:51:17.986Z,60.41
2022-12-12T07:53:46.722Z,60.43
2022-12-12T07:56:16.677Z,60.47
2022-12-12T07:58:45.194Z,60.51
2022-12-12T08:01:17.377Z,60.51
2022-12-12T08:03:46.313Z,60.55
2022-12-12T08:06:16.270Z,60.57
2022-12-12T08:08:44.645Z,60.61
2022-12-12T08:11:15.917Z,60.59
2022-12-12T08:13:44.172Z,60.63
2022-12-12T08:16:17.096Z,60.51
2022-12-12T08:18:45.785Z,60.25
2022-12-12T08:21:18.797Z,60.14
2022-12-12T08:23:53.080Z,60.25
2022-12-12T08:26:21.169Z,60.18
2022-12-12T08:28:50.024Z,60.47
2022-12-12T08:31:21.501Z,60.93
2022-12-12T08:33:51.307Z,61.17
2022-12-12T08:36:22.029Z,61.02
2022-12-12T08:38:50.841Z,61.15
2022-12-12T08:41:19.924Z,61.01
2022-12-12T08:43:48.057Z,61.13
2022-12-12T08:46:18.583Z,61.11
2022-12-12T08:48:49.215Z,61.08
2022-12-12T08:51:18.398Z,61.05
2022-12-12T08:53:46.850Z,60.95
2022-12-12T08:56:15.198Z,60.89
2022-12-12T08:58:43.351Z,60.83
2022-12-12T09:01:12.609Z,60.72
2022-12-12T09:03:40.908Z,60.59
2022-12-12T09:06:11.512Z,60.91
2022-12-12T09:08:40.101Z,60.86
2022-12-12T09:11:08.576Z,60.80
2022-12-12T09:13:36.960Z,60.61
2022-12-12T09:16:05.549Z,60.70
2022-12-12T09:18:33.835Z,60.70
2022-12-12T09:21:02.029Z,60.67
2022-12-12T09:23:31.568Z,60.42
2022-12-12T09:26:00.148Z,60.27
2022-12-12T09:28:28.344Z,59.79
2022-12-12T09:30:56.395Z,60.01
2022-12-12T09:33:24.414Z,59.73
2022-12-12T09:35:59.673Z,59.71
2022-12-12T09:38:28.825Z,60.09
2022-12-12T09:41:02.599Z,60.18
2022-12-12T09:43:34.822Z,59.99
2022-12-12T09:46:04.614Z,59.50
2022-12-12T09:48:42.055Z,59.28
2022-12-12T09:51:11.380Z,59.09
2022-12-12T09:53:40.710Z,58.93
2022-12-12T09:56:14.599Z,59.16
2022-12-12T09:58:53.946Z,59.03
2022-12-12T10:01:29.905Z,58.83
2022-12-12T10:04:06.696Z,58.74
2022-12-12T10:06:41.429Z,58.72
2022-12-12T10:09:33.527Z,58.27
2022-12-12T10:12:08.397Z,58.80
2022-12-12T10:14:40.000Z,58.93
2022-12-12T10:17:15.069Z,58.66
2022-12-12T10:19:49.513Z,58.18
2022-12-12T10:22:37.010Z,58.48
2022-12-12T10:25:17.959Z,58.64
2022-12-12T10:27:47.844Z,58.66
2022-12-12T10:30:18.981Z,58.61
2022-12-12T10:33:05.714Z,58.33
2022-12-12T10:35:42.990Z,58.22
2022-12-12T10:38:25.621Z,57.70
2022-12-12T10:40:59.989Z,57.44
2022-12-12T10:43:35.722Z,57.05
2022-12-12T10:46:23.913Z,56.87
2022-12-12T10:48:53.149Z,57.63
2022-12-12T10:51:24.052Z,57.47
2022-12-12T10:53:52.240Z,57.35
2022-12-12T10:56:27.710Z,57.01
2022-12-12T10:59:02.904Z,57.11
2022-12-12T11:04:35.553Z,56.52
2022-12-12T11:07:17.854Z,56.68
2022-12-12T11:09:50.430Z,56.92
2022-12-12T11:12:34.271Z,56.90
2022-12-12T11:15:16.979Z,56.90
2022-12-12T11:17:47.153Z,57.03
2022-12-12T11:20:19.478Z,56.88
2022-12-12T11:22:53.080Z,56.85
2022-12-12T11:25:29.347Z,56.93
2022-12-12T11:28:06.423Z,56.98
2022-12-12T11:30:45.545Z,55.23
2022-12-12T11:33:25.818Z,55.84
2022-12-12T11:35:58.430Z,55.85
2022-12-12T11:38:34.762Z,55.80
2022-12-12T11:41:10.206Z,55.73
2022-12-12T11:43:54.228Z,55.31
2022-12-12T11:46:33.480Z,55.07
2022-12-12T11:49:07.631Z,55.20
2022-12-12T11:51:43.660Z,54.78
2022-12-12T11:54:27.571Z,54.51
2022-12-12T11:57:07.213Z,54.35
2022-12-12T11:59:57.605Z,54.01
2022-12-12T12:02:58.198Z,53.99
2022-12-12T12:05:37.316Z,53.84
2022-12-12T12:08:15.143Z,53.86
2022-12-12T12:10:56.977Z,53.80
2022-12-12T12:13:42.570Z,53.39
2022-12-12T12:16:20.885Z,53.38
2022-12-12T12:19:02.360Z,53.26
2022-12-12T12:21:43.017Z,52.73
2022-12-12T12:24:41.772Z,52.57
2022-12-12T12:27:18.246Z,52.75
2022-12-12T12:30:16.715Z,52.83
2022-12-12T12:33:11.891Z,51.89
2022-12-12T12:35:51.869Z,51.85
2022-12-12T12:38:27.991Z,52.48
2022-12-12T12:41:15.973Z,52.30
2022-12-12T12:44:01.372Z,52.10
2022-12-12T12:46:39.786Z,51.25
2022-12-12T12:49:13.848Z,51.35
2022-12-12T12:51:50.421Z,51.56
2022-12-12T12:54:25.085Z,51.50
2022-12-12T12:57:00.000Z,51.27
2022-12-12T12:59:34.244Z,51.46
2022-12-12T13:02:06.852Z,51.31
2022-12-12T13:04:42.317Z,50.77
2022-12-12T13:07:17.440Z,48.99
2022-12-12T13:09:55.386Z,48.54
2022-12-12T13:12:30.649Z,49.20
2022-12-12T13:15:03.151Z,49.41
2022-12-12T13:17:43.290Z,48.57
2022-12-12T13:20:16.855Z,48.71
2022-12-12T13:22:55.079Z,48.64
2022-12-12T13:25:34.515Z,48.16
2022-12-12T13:28:08.085Z,48.64
2022-12-12T13:30:48.828Z,48.73
2022-12-12T13:33:36.008Z,48.85
2022-12-12T13:36:11.240Z,49.02
2022-12-12T13:38:40.189Z,49.19
2022-12-12T13:41:11.396Z,48.87
2022-12-12T13:43:48.295Z,49.07
2022-12-12T13:46:35.057Z,49.12
2022-12-12T13:49:27.021Z,48.52
2022-12-12T13:52:24.191Z,48.68
2022-12-12T13:54:55.641Z,48.59
2022-12-12T13:57:27.270Z,48.57
2022-12-12T14:00:15.797Z,48.53
2022-12-12T14:02:47.040Z,48.62
2022-12-12T14:05:22.552Z,48.05
2022-12-12T14:07:54.233Z,48.15
2022-12-12T14:10:27.965Z,48.24
2022-12-12T14:12:57.326Z,48.20
2022-12-12T14:15:31.353Z,48.38
2022-12-12T14:18:02.790Z,48.47
2022-12-12T14:20:33.630Z,48.44
2022-12-12T14:23:23.788Z,48.51
2022-12-12T14:25:52.261Z,48.87
2022-12-12T14:28:22.610Z,49.37
2022-12-12T14:30:57.362Z,49.29
2022-12-12T14:34:02.788Z,49.51
2022-12-12T14:37:28.015Z,49.87
2022-12-12T14:40:05.341Z,50.18
2022-12-12T14:43:18.965Z,50.18
2022-12-12T14:45:54.127Z,50.30
2022-12-12T14:48:24.712Z,50.57
2022-12-12T14:50:57.434Z,50.63
2022-12-12T14:53:28.615Z,50.69
2022-12-12T14:56:01.353Z,50.60
2022-12-12T14:58:32.202Z,50.55
2022-12-12T15:01:02.868Z,50.29
2022-12-12T15:03:35.708Z,50.24
2022-12-12T15:06:36.428Z,50.15
2022-12-12T15:09:20.088Z,50.20
2022-12-12T15:11:50.215Z,50.30
2022-12-12T15:14:25.614Z,50.32
2022-12-12T15:16:59.692Z,50.53
2022-12-12T15:19:31.105Z,50.39
2022-12-12T15:21:59.877Z,50.53
2022-12-12T15:24:30.525Z,50.64
2022-12-12T15:27:00.838Z,50.82
2022-12-12T15:29:31.273Z,51.14
2022-12-12T15:32:02.950Z,51.24
2022-12-12T15:34:37.249Z,51.39
2022-12-12T15:37:28.271Z,51.43
2022-12-12T15:40:22.665Z,51.62
2022-12-12T15:42:56.469Z,52.04
2022-12-12T15:45:30.353Z,53.49
2022-12-12T15:47:59.296Z,53.20
2022-12-12T15:50:31.216Z,53.15
2022-12-12T15:53:19.506Z,52.95
2022-12-12T15:55:59.521Z,52.94
2022-12-12T15:58:33.365Z,53.18
2022-12-12T16:01:08.358Z,53.15
2022-12-12T16:03:56.966Z,53.15
2022-12-12T16:06:26.660Z,53.39
2022-12-12T16:09:01.640Z,53.46
2022-12-12T16:11:40.758Z,53.49
2022-12-12T16:14:26.445Z,53.36
2022-12-12T16:16:58.737Z,53.67
2022-12-12T16:19:34.792Z,53.69
2022-12-12T16:22:06.015Z,53.85
2022-12-12T16:24:34.241Z,54.10
2022-12-12T16:27:02.895Z,54.41
2022-12-12T16:29:32.466Z,54.30
2022-12-12T16:32:00.550Z,54.17
2022-12-12T16:34:28.586Z,54.04
2022-12-12T16:36:56.713Z,53.98
2022-12-12T16:39:24.770Z,53.91
2022-12-12T16:41:52.909Z,53.88
2022-12-12T16:44:23.759Z,53.94
2022-12-12T16:46:53.327Z,53.95
2022-12-12T16:49:21.933Z,53.95
2022-12-12T16:51:50.057Z,54.17
2022-12-12T16:54:18.872Z,54.27
2022-12-12T16:56:52.438Z,54.17
2022-12-12T16:59:20.487Z,54.15
2022-12-12T17:01:48.611Z,54.14
2022-12-12T17:04:22.390Z,54.10
2022-12-12T17:06:50.902Z,54.36
2022-12-12T17:09:21.408Z,54.43
2022-12-12T17:11:49.732Z,54.47
2022-12-12T17:14:21.593Z,54.49
2022-12-12T17:16:49.941Z,54.55
2022-12-12T17:19:19.436Z,54.62
2022-12-12T17:21:47.783Z,55.04
2022-12-12T17:24:16.594Z,55.16
2022-12-12T17:26:44.963Z,55.24
2022-12-12T17:29:13.002Z,55.22
2022-12-12T17:31:41.366Z,55.41
2022-12-12T17:34:09.610Z,55.49
2022-12-12T17:36:39.255Z,55.49
2022-12-12T17:39:07.465Z,55.66
2022-12-12T17:41:35.573Z,55.88
2022-12-12T17:44:03.720Z,56.06
2022-12-12T17:46:32.486Z,56.21
2022-12-12T17:49:01.978Z,56.31
2022-12-12T17:51:30.235Z,56.49
2022-12-12T17:54:00.529Z,56.52
2022-12-12T17:56:29.065Z,56.56
2022-12-12T17:58:58.045Z,56.58
2022-12-12T18:01:28.125Z,56.66
2022-12-12T18:03:57.704Z,56.64
2022-12-12T18:06:28.189Z,56.71
2022-12-12T18:08:56.851Z,56.75
2022-12-12T18:11:28.039Z,56.69
2022-12-12T18:13:57.920Z,56.68
2022-12-12T18:16:28.111Z,56.76
2022-12-12T18:18:57.597Z,56.81
2022-12-12T18:24:16.044Z,56.93
2022-12-12T18:26:47.657Z,56.97
2022-12-12T18:29:15.783Z,56.97
2022-12-12T18:31:43.992Z,57.10
2022-12-12T18:34:12.108Z,57.18
2022-12-12T18:36:40.610Z,57.21
2022-12-12T18:39:09.072Z,57.26
2022-12-12T18:41:37.788Z,57.33
2022-12-12T18:44:09.080Z,57.39
2022-12-12T18:46:42.648Z,57.42
2022-12-12T18:49:13.830Z,57.51
2022-12-12T18:51:42.542Z,57.51
2022-12-12T18:54:15.456Z,57.55
2022-12-12T18:56:45.307Z,57.96
2022-12-12T18:59:15.628Z,57.89
2022-12-12T19:01:44.023Z,57.94
2022-12-12T19:04:17.529Z,58.16
2022-12-12T19:06:49.269Z,58.14
2022-12-12T19:09:19.994Z,58.20
2022-12-12T19:11:48.425Z,58.28
2022-12-12T19:14:18.267Z,58.36
2022-12-12T19:16:46.909Z,58.38
2022-12-12T19:19:15.626Z,58.45
2022-12-12T19:21:44.305Z,58.51
2022-12-12T19:24:13.767Z,58.42
2022-12-12T19:26:43.828Z,58.53
2022-12-12T19:29:13.895Z,58.64
2022-12-12T19:31:43.380Z,58.81
2022-12-12T19:34:13.491Z,58.88
2022-12-12T19:36:41.896Z,58.80
2022-12-12T19:39:10.294Z,58.81
2022-12-12T19:41:38.563Z,58.74
2022-12-12T19:44:08.944Z,58.74
2022-12-12T19:46:37.170Z,58.87
2022-12-12T19:49:08.618Z,58.87
2022-12-12T19:51:39.352Z,58.88
2022-12-12T19:54:08.989Z,58.80
2022-12-12T19:56:40.633Z,58.92
2022-12-12T19:59:09.817Z,59.03
2022-12-12T20:01:38.941Z,58.99
2022-12-12T20:04:09.985Z,58.97
2022-12-12T20:06:45.262Z,59.35
2022-12-12T20:09:16.092Z,59.27
2022-12-12T20:11:45.370Z,59.18
2022-12-12T20:14:15.401Z,59.13
2022-12-12T20:16:43.864Z,59.16
2022-12-12T20:19:14.820Z,59.14
2022-12-12T20:22:02.218Z,59.12
2022-12-12T20:24:31.157Z,59.21
2022-12-12T20:27:00.219Z,59.44
2022-12-12T20:29:28.801Z,59.49
2022-12-12T20:31:57.042Z,59.54
2022-12-12T20:34:26.482Z,59.57
2022-12-12T20:36:55.760Z,59.61
2022-12-12T20:39:25.841Z,59.61
2022-12-12T20:41:54.768Z,59.58
2022-12-12T20:44:24.264Z,59.61
2022-12-12T20:46:53.209Z,59.62
2022-12-12T20:49:24.076Z,59.61
2022-12-12T20:51:55.912Z,59.54
2022-12-12T20:54:25.178Z,59.53
2022-12-12T20:56:53.715Z,59.73
2022-12-12T20:59:21.719Z,59.79
2022-12-12T21:01:49.856Z,59.72
2022-12-12T21:04:18.126Z,59.69
2022-12-12T21:06:49.763Z,59.63
2022-12-12T21:09:25.041Z,59.52
2022-12-12T21:11:55.148Z,59.65
2022-12-12T21:14:23.786Z,59.61
2022-12-12T21:16:52.677Z,59.82
2022-12-12T21:19:22.050Z,59.75
2022-12-12T21:21:50.493Z,59.68
2022-12-12T21:24:20.781Z,59.63
2022-12-12T21:26:49.640Z,59.54
2022-12-12T21:29:17.738Z,59.47
2022-12-12T21:31:50.900Z,59.54
2022-12-12T21:34:22.093Z,59.56
2022-12-12T21:36:52.735Z,59.58
2022-12-12T21:39:23.281Z,59.83
2022-12-12T21:41:51.743Z,59.96
2022-12-12T21:44:20.209Z,59.95
2022-12-12T21:46:48.814Z,60.57
2022-12-12T21:49:30.814Z,61.96
2022-12-12T21:52:03.018Z,61.34
2022-12-12T21:54:33.844Z,60.97
2022-12-12T21:57:02.734Z,60.89
2022-12-12T21:59:31.482Z,60.70
2022-12-12T22:02:01.493Z,60.50
2022-12-12T22:04:29.919Z,60.96
2022-12-12T22:06:58.455Z,61.06
2022-12-12T22:09:27.281Z,60.83
2022-12-12T22:12:03.470Z,61.25
2022-12-12T22:14:33.804Z,61.21
2022-12-12T22:17:01.948Z,61.05
2022-12-12T22:19:30.197Z,61.05
2022-12-12T22:21:58.329Z,60.96
2022-12-12T22:24:26.451Z,60.86
2022-12-12T22:26:55.951Z,60.65
2022-12-12T22:29:23.985Z,60.63
2022-12-12T22:31:52.398Z,60.59
2022-12-12T22:34:23.403Z,60.92
2022-12-12T22:36:52.149Z,61.13
2022-12-12T22:39:21.975Z,61.34
2022-12-12T22:41:50.621Z,61.47
2022-12-12T22:44:22.233Z,61.76
2022-12-12T22:46:51.923Z,61.88
2022-12-12T22:49:22.458Z,63.00
2022-12-12T22:51:51.374Z,62.31
2022-12-12T22:54:19.937Z,62.53
2022-12-12T22:56:47.976Z,62.57
2022-12-12T22:59:16.083Z,62.28
2022-12-12T23:01:45.590Z,62.64
2022-12-12T23:04:14.470Z,62.73
2022-12-12T23:06:43.532Z,62.95
2022-12-12T23:09:15.336Z,62.63
2022-12-12T23:11:44.100Z,62.92
2022-12-12T23:14:15.721Z,63.16
2022-12-12T23:16:45.583Z,62.74
2022-12-12T23:19:15.481Z,62.61
2022-12-12T23:21:43.621Z,62.52
2022-12-12T23:24:12.510Z,62.84
2022-12-12T23:26:40.774Z,62.98
2022-12-12T23:29:10.783Z,62.99
2022-12-12T23:31:39.659Z,62.88
2022-12-12T23:34:14.480Z,63.12
2022-12-12T23:36:44.814Z,62.73
2022-12-12T23:39:14.118Z,62.76
2022-12-12T23:41:42.720Z,62.45
2022-12-12T23:44:13.239Z,62.32
2022-12-12T23:46:41.793Z,62.19
2022-12-12T23:49:16.125Z,61.93
2022-12-12T23:51:45.807Z,61.91
2022-12-12T23:54:16.005Z,61.89
2022-12-12T23:56:44.716Z,61.86
2022-12-12T23:59:17.384Z,61.79
